sensor_id;sensor_type;location;lat;lon;timestamp;P1;durP1;ratioP1;P2;durP2;ratioP2
4895;SDS011;2463;49.948;8.472;2022-10-19T00:02:18;102.60;;;9.35;;
4895;SDS011;2463;49.948;8.472;2022-10-19T00:04:44;105.10;;;9.35;;
4895;SDS011;2463;49.948;8.472;2022-10-19T00:07:11;98.35;;;8.60;;
4895;SDS011;2463;49.948;8.472;2022-10-19T00:09:38;100.95;;;8.93;;
4895;SDS011;2463;49.948;8.472;2022-10-19T00:12:04;103.43;;;9.90;;
4895;SDS011;2463;49.948;8.472;2022-10-19T00:14:31;104.90;;;9.05;;
4895;SDS011;2463;49.948;8.472;2022-10-19T00:16:58;102.28;;;8.63;;
4895;SDS011;2463;49.948;8.472;2022-10-19T00:19:26;100.93;;;8.57;;
4895;SDS011;2463;49.948;8.472;2022-10-19T00:21:53;104.03;;;8.98;;
4895;SDS011;2463;49.948;8.472;2022-10-19T00:24:20;100.55;;;8.98;;
4895;SDS011;2463;49.948;8.472;2022-10-19T00:26:47;104.25;;;9.95;;
4895;SDS011;2463;49.948;8.472;2022-10-19T00:29:14;100.43;;;8.63;;
4895;SDS011;2463;49.948;8.472;2022-10-19T00:31:41;101.78;;;9.38;;
4895;SDS011;2463;49.948;8.472;2022-10-19T00:34:07;100.53;;;8.95;;
4895;SDS011;2463;49.948;8.472;2022-10-19T00:36:36;110.25;;;9.95;;
4895;SDS011;2463;49.948;8.472;2022-10-19T00:39:04;101.85;;;9.40;;
4895;SDS011;2463;49.948;8.472;2022-10-19T00:41:33;100.45;;;9.32;;
4895;SDS011;2463;49.948;8.472;2022-10-19T00:46:30;103.15;;;10.10;;
4895;SDS011;2463;49.948;8.472;2022-10-19T00:49:04;115.32;;;11.65;;
4895;SDS011;2463;49.948;8.472;2022-10-19T00:51:53;114.00;;;12.38;;
4895;SDS011;2463;49.948;8.472;2022-10-19T00:54:30;115.25;;;12.02;;
4895;SDS011;2463;49.948;8.472;2022-10-19T00:56:58;107.18;;;11.55;;
4895;SDS011;2463;49.948;8.472;2022-10-19T00:59:25;109.97;;;12.98;;
4895;SDS011;2463;49.948;8.472;2022-10-19T01:01:57;104.35;;;11.43;;
4895;SDS011;2463;49.948;8.472;2022-10-19T01:04:24;106.85;;;11.65;;
4895;SDS011;2463;49.948;8.472;2022-10-19T01:06:52;107.45;;;10.73;;
4895;SDS011;2463;49.948;8.472;2022-10-19T01:09:20;103.80;;;10.05;;
4895;SDS011;2463;49.948;8.472;2022-10-19T01:11:55;100.07;;;8.45;;
4895;SDS011;2463;49.948;8.472;2022-10-19T01:17:36;99.05;;;7.65;;
4895;SDS011;2463;49.948;8.472;2022-10-19T01:26:13;109.35;;;9.65;;
4895;SDS011;2463;49.948;8.472;2022-10-19T01:37:00;103.47;;;9.98;;
4895;SDS011;2463;49.948;8.472;2022-10-19T01:44:40;109.38;;;11.80;;
4895;SDS011;2463;49.948;8.472;2022-10-19T01:50:24;103.82;;;11.20;;
4895;SDS011;2463;49.948;8.472;2022-10-19T01:52:56;114.30;;;12.15;;
4895;SDS011;2463;49.948;8.472;2022-10-19T01:55:24;106.75;;;10.25;;
4895;SDS011;2463;49.948;8.472;2022-10-19T01:57:54;111.35;;;12.55;;
4895;SDS011;2463;49.948;8.472;2022-10-19T02:00:25;109.82;;;12.90;;
4895;SDS011;2463;49.948;8.472;2022-10-19T02:02:53;111.45;;;11.38;;
4895;SDS011;2463;49.948;8.472;2022-10-19T02:05:22;116.90;;;11.98;;
4895;SDS011;2463;49.948;8.472;2022-10-19T02:07:54;106.05;;;11.38;;
4895;SDS011;2463;49.948;8.472;2022-10-19T02:10:23;109.03;;;11.27;;
4895;SDS011;2463;49.948;8.472;2022-10-19T02:12:51;113.43;;;13.10;;
4895;SDS011;2463;49.948;8.472;2022-10-19T02:15:21;112.38;;;12.52;;
4895;SDS011;2463;49.948;8.472;2022-10-19T02:17:50;121.90;;;11.35;;
4895;SDS011;2463;49.948;8.472;2022-10-19T02:20:22;164.57;;;11.85;;
4895;SDS011;2463;49.948;8.472;2022-10-19T02:22:49;107.70;;;9.98;;
4895;SDS011;2463;49.948;8.472;2022-10-19T02:25:16;103.20;;;10.07;;
4895;SDS011;2463;49.948;8.472;2022-10-19T02:27:42;111.57;;;10.65;;
4895;SDS011;2463;49.948;8.472;2022-10-19T02:30:10;108.22;;;11.57;;
4895;SDS011;2463;49.948;8.472;2022-10-19T02:32:41;103.30;;;9.98;;
4895;SDS011;2463;49.948;8.472;2022-10-19T02:35:09;106.10;;;10.50;;
4895;SDS011;2463;49.948;8.472;2022-10-19T02:37:37;102.03;;;9.77;;
4895;SDS011;2463;49.948;8.472;2022-10-19T02:40:05;100.93;;;9.70;;
4895;SDS011;2463;49.948;8.472;2022-10-19T02:45:19;114.25;;;10.13;;
4895;SDS011;2463;49.948;8.472;2022-10-19T02:48:01;103.80;;;10.80;;
4895;SDS011;2463;49.948;8.472;2022-10-19T02:50:33;108.03;;;10.20;;
4895;SDS011;2463;49.948;8.472;2022-10-19T02:53:00;105.18;;;10.27;;
4895;SDS011;2463;49.948;8.472;2022-10-19T02:55:27;103.22;;;10.65;;
4895;SDS011;2463;49.948;8.472;2022-10-19T02:57:55;102.68;;;9.55;;
4895;SDS011;2463;49.948;8.472;2022-10-19T03:00:22;101.30;;;9.35;;
4895;SDS011;2463;49.948;8.472;2022-10-19T03:02:49;118.20;;;11.95;;
4895;SDS011;2463;49.948;8.472;2022-10-19T03:05:15;110.07;;;11.20;;
4895;SDS011;2463;49.948;8.472;2022-10-19T03:07:42;116.57;;;11.68;;
4895;SDS011;2463;49.948;8.472;2022-10-19T03:10:09;101.85;;;9.77;;
4895;SDS011;2463;49.948;8.472;2022-10-19T03:12:35;107.25;;;10.73;;
4895;SDS011;2463;49.948;8.472;2022-10-19T03:15:02;105.72;;;10.75;;
4895;SDS011;2463;49.948;8.472;2022-10-19T03:17:29;105.10;;;10.35;;
4895;SDS011;2463;49.948;8.472;2022-10-19T03:19:56;104.03;;;10.38;;
4895;SDS011;2463;49.948;8.472;2022-10-19T03:22:23;106.60;;;10.13;;
4895;SDS011;2463;49.948;8.472;2022-10-19T03:24:50;104.90;;;10.50;;
4895;SDS011;2463;49.948;8.472;2022-10-19T03:27:16;109.07;;;11.07;;
4895;SDS011;2463;49.948;8.472;2022-10-19T03:29:43;106.53;;;11.60;;
4895;SDS011;2463;49.948;8.472;2022-10-19T03:32:09;108.95;;;10.60;;
4895;SDS011;2463;49.948;8.472;2022-10-19T03:34:36;112.60;;;11.00;;
4895;SDS011;2463;49.948;8.472;2022-10-19T03:37:03;111.40;;;11.13;;
4895;SDS011;2463;49.948;8.472;2022-10-19T03:39:29;108.75;;;10.85;;
4895;SDS011;2463;49.948;8.472;2022-10-19T03:41:56;105.07;;;11.05;;
4895;SDS011;2463;49.948;8.472;2022-10-19T03:44:23;106.10;;;11.40;;
4895;SDS011;2463;49.948;8.472;2022-10-19T03:46:49;108.18;;;10.75;;
4895;SDS011;2463;49.948;8.472;2022-10-19T03:49:16;105.70;;;10.55;;
4895;SDS011;2463;49.948;8.472;2022-10-19T03:51:43;105.60;;;10.65;;
4895;SDS011;2463;49.948;8.472;2022-10-19T03:54:11;105.10;;;10.73;;
4895;SDS011;2463;49.948;8.472;2022-10-19T03:56:39;106.97;;;11.35;;
4895;SDS011;2463;49.948;8.472;2022-10-19T03:59:07;112.20;;;10.45;;
4895;SDS011;2463;49.948;8.472;2022-10-19T04:01:38;109.43;;;11.52;;
4895;SDS011;2463;49.948;8.472;2022-10-19T04:04:11;107.60;;;11.90;;
4895;SDS011;2463;49.948;8.472;2022-10-19T04:06:40;101.90;;;9.95;;
4895;SDS011;2463;49.948;8.472;2022-10-19T04:09:10;115.07;;;11.38;;
4895;SDS011;2463;49.948;8.472;2022-10-19T04:11:39;115.53;;;10.55;;
4895;SDS011;2463;49.948;8.472;2022-10-19T04:14:06;113.97;;;12.25;;
4895;SDS011;2463;49.948;8.472;2022-10-19T04:16:35;113.97;;;10.85;;
4895;SDS011;2463;49.948;8.472;2022-10-19T04:19:01;110.15;;;12.35;;
4895;SDS011;2463;49.948;8.472;2022-10-19T04:21:32;113.28;;;10.85;;
4895;SDS011;2463;49.948;8.472;2022-10-19T04:24:02;115.30;;;12.25;;
4895;SDS011;2463;49.948;8.472;2022-10-19T04:26:31;117.85;;;12.45;;
4895;SDS011;2463;49.948;8.472;2022-10-19T04:28:59;109.22;;;12.30;;
4895;SDS011;2463;49.948;8.472;2022-10-19T04:31:27;108.40;;;13.00;;
4895;SDS011;2463;49.948;8.472;2022-10-19T04:33:54;118.78;;;14.25;;
4895;SDS011;2463;49.948;8.472;2022-10-19T04:36:22;114.20;;;13.05;;
4895;SDS011;2463;49.948;8.472;2022-10-19T04:38:49;116.45;;;13.93;;
4895;SDS011;2463;49.948;8.472;2022-10-19T04:41:17;111.78;;;13.32;;
4895;SDS011;2463;49.948;8.472;2022-10-19T04:43:45;121.22;;;13.43;;
4895;SDS011;2463;49.948;8.472;2022-10-19T04:46:14;113.05;;;12.82;;
4895;SDS011;2463;49.948;8.472;2022-10-19T04:48:43;116.18;;;13.57;;
4895;SDS011;2463;49.948;8.472;2022-10-19T04:51:11;113.88;;;13.98;;
4895;SDS011;2463;49.948;8.472;2022-10-19T04:53:40;118.25;;;11.90;;
4895;SDS011;2463;49.948;8.472;2022-10-19T04:56:08;111.53;;;13.30;;
4895;SDS011;2463;49.948;8.472;2022-10-19T04:58:37;115.22;;;13.95;;
4895;SDS011;2463;49.948;8.472;2022-10-19T05:01:08;113.30;;;14.75;;
4895;SDS011;2463;49.948;8.472;2022-10-19T05:03:45;113.25;;;14.32;;
4895;SDS011;2463;49.948;8.472;2022-10-19T05:06:13;119.32;;;13.63;;
4895;SDS011;2463;49.948;8.472;2022-10-19T05:08:40;114.53;;;14.43;;
4895;SDS011;2463;49.948;8.472;2022-10-19T05:11:12;116.43;;;14.35;;
4895;SDS011;2463;49.948;8.472;2022-10-19T05:13:40;113.28;;;13.80;;
4895;SDS011;2463;49.948;8.472;2022-10-19T05:16:10;114.38;;;14.80;;
4895;SDS011;2463;49.948;8.472;2022-10-19T05:18:38;114.47;;;13.73;;
4895;SDS011;2463;49.948;8.472;2022-10-19T05:21:09;117.50;;;15.20;;
4895;SDS011;2463;49.948;8.472;2022-10-19T05:23:37;115.05;;;14.30;;
4895;SDS011;2463;49.948;8.472;2022-10-19T05:26:05;113.07;;;14.75;;
4895;SDS011;2463;49.948;8.472;2022-10-19T05:28:39;132.15;;;15.18;;
4895;SDS011;2463;49.948;8.472;2022-10-19T05:31:07;113.07;;;13.55;;
4895;SDS011;2463;49.948;8.472;2022-10-19T05:33:35;118.45;;;13.63;;
4895;SDS011;2463;49.948;8.472;2022-10-19T05:38:47;115.50;;;14.27;;
4895;SDS011;2463;49.948;8.472;2022-10-19T05:41:15;111.40;;;13.02;;
4895;SDS011;2463;49.948;8.472;2022-10-19T05:43:42;119.57;;;16.27;;
4895;SDS011;2463;49.948;8.472;2022-10-19T05:46:10;120.85;;;14.93;;
4895;SDS011;2463;49.948;8.472;2022-10-19T05:48:38;121.45;;;14.20;;
4895;SDS011;2463;49.948;8.472;2022-10-19T05:51:07;130.45;;;15.40;;
4895;SDS011;2463;49.948;8.472;2022-10-19T05:53:36;110.20;;;14.40;;
4895;SDS011;2463;49.948;8.472;2022-10-19T05:56:04;118.40;;;13.18;;
4895;SDS011;2463;49.948;8.472;2022-10-19T05:58:32;111.05;;;12.80;;
4895;SDS011;2463;49.948;8.472;2022-10-19T06:01:00;111.97;;;13.93;;
4895;SDS011;2463;49.948;8.472;2022-10-19T06:03:27;111.18;;;13.95;;
4895;SDS011;2463;49.948;8.472;2022-10-19T06:05:54;125.15;;;14.50;;
4895;SDS011;2463;49.948;8.472;2022-10-19T06:08:22;121.10;;;16.05;;
4895;SDS011;2463;49.948;8.472;2022-10-19T06:10:49;109.78;;;14.20;;
4895;SDS011;2463;49.948;8.472;2022-10-19T06:13:17;120.50;;;15.23;;
4895;SDS011;2463;49.948;8.472;2022-10-19T06:15:48;108.55;;;13.82;;
4895;SDS011;2463;49.948;8.472;2022-10-19T06:18:15;115.45;;;14.07;;
4895;SDS011;2463;49.948;8.472;2022-10-19T06:20:42;115.65;;;14.02;;
4895;SDS011;2463;49.948;8.472;2022-10-19T06:23:09;117.32;;;14.10;;
4895;SDS011;2463;49.948;8.472;2022-10-19T06:25:35;129.40;;;13.25;;
4895;SDS011;2463;49.948;8.472;2022-10-19T06:28:02;111.75;;;13.68;;
4895;SDS011;2463;49.948;8.472;2022-10-19T06:30:29;126.22;;;13.95;;
4895;SDS011;2463;49.948;8.472;2022-10-19T06:32:57;119.22;;;14.25;;
4895;SDS011;2463;49.948;8.472;2022-10-19T06:35:24;121.53;;;14.57;;
4895;SDS011;2463;49.948;8.472;2022-10-19T06:37:51;116.90;;;13.48;;
4895;SDS011;2463;49.948;8.472;2022-10-19T06:40:17;116.38;;;14.95;;
4895;SDS011;2463;49.948;8.472;2022-10-19T06:42:44;116.05;;;13.35;;
4895;SDS011;2463;49.948;8.472;2022-10-19T06:45:10;112.88;;;13.82;;
4895;SDS011;2463;49.948;8.472;2022-10-19T06:47:37;118.75;;;13.15;;
4895;SDS011;2463;49.948;8.472;2022-10-19T06:50:04;109.95;;;12.20;;
4895;SDS011;2463;49.948;8.472;2022-10-19T06:52:32;111.20;;;13.52;;
4895;SDS011;2463;49.948;8.472;2022-10-19T06:55:00;111.00;;;12.32;;
4895;SDS011;2463;49.948;8.472;2022-10-19T06:57:27;113.30;;;13.60;;
4895;SDS011;2463;49.948;8.472;2022-10-19T06:59:54;115.88;;;14.32;;
4895;SDS011;2463;49.948;8.472;2022-10-19T07:02:21;105.95;;;12.02;;
4895;SDS011;2463;49.948;8.472;2022-10-19T07:04:47;108.70;;;11.25;;
4895;SDS011;2463;49.948;8.472;2022-10-19T07:07:14;111.40;;;12.30;;
4895;SDS011;2463;49.948;8.472;2022-10-19T07:09:41;107.40;;;12.55;;
4895;SDS011;2463;49.948;8.472;2022-10-19T07:12:07;114.53;;;11.48;;
4895;SDS011;2463;49.948;8.472;2022-10-19T07:14:36;122.57;;;13.05;;
4895;SDS011;2463;49.948;8.472;2022-10-19T07:17:05;115.53;;;12.75;;
4895;SDS011;2463;49.948;8.472;2022-10-19T07:19:32;109.30;;;12.00;;
4895;SDS011;2463;49.948;8.472;2022-10-19T07:22:00;109.00;;;12.00;;
4895;SDS011;2463;49.948;8.472;2022-10-19T07:24:26;105.78;;;11.73;;
4895;SDS011;2463;49.948;8.472;2022-10-19T07:26:53;108.15;;;10.90;;
4895;SDS011;2463;49.948;8.472;2022-10-19T07:29:20;108.85;;;11.75;;
4895;SDS011;2463;49.948;8.472;2022-10-19T07:31:47;108.47;;;11.10;;
4895;SDS011;2463;49.948;8.472;2022-10-19T07:34:14;106.80;;;11.48;;
4895;SDS011;2463;49.948;8.472;2022-10-19T07:36:43;112.40;;;10.70;;
4895;SDS011;2463;49.948;8.472;2022-10-19T07:39:13;105.55;;;11.07;;
4895;SDS011;2463;49.948;8.472;2022-10-19T07:41:42;102.07;;;10.77;;
4895;SDS011;2463;49.948;8.472;2022-10-19T07:44:10;106.93;;;10.55;;
4895;SDS011;2463;49.948;8.472;2022-10-19T07:46:40;103.68;;;11.55;;
4895;SDS011;2463;49.948;8.472;2022-10-19T07:49:09;107.95;;;10.75;;
4895;SDS011;2463;49.948;8.472;2022-10-19T07:51:44;105.45;;;11.45;;
4895;SDS011;2463;49.948;8.472;2022-10-19T07:54:12;103.38;;;9.95;;
4895;SDS011;2463;49.948;8.472;2022-10-19T07:56:39;107.25;;;10.00;;
4895;SDS011;2463;49.948;8.472;2022-10-19T07:59:06;101.63;;;10.13;;
4895;SDS011;2463;49.948;8.472;2022-10-19T08:01:34;106.95;;;10.70;;
4895;SDS011;2463;49.948;8.472;2022-10-19T08:04:06;107.03;;;9.98;;
4895;SDS011;2463;49.948;8.472;2022-10-19T08:06:53;100.03;;;10.15;;
4895;SDS011;2463;49.948;8.472;2022-10-19T08:09:19;103.45;;;9.95;;
4895;SDS011;2463;49.948;8.472;2022-10-19T08:12:06;104.15;;;9.88;;
4895;SDS011;2463;49.948;8.472;2022-10-19T08:14:39;101.15;;;9.70;;
4895;SDS011;2463;49.948;8.472;2022-10-19T08:17:06;98.13;;;8.60;;
4895;SDS011;2463;49.948;8.472;2022-10-19T08:19:36;106.45;;;9.50;;
4895;SDS011;2463;49.948;8.472;2022-10-19T08:22:08;100.53;;;9.20;;
4895;SDS011;2463;49.948;8.472;2022-10-19T08:24:35;98.28;;;8.77;;
4895;SDS011;2463;49.948;8.472;2022-10-19T08:27:02;97.53;;;8.15;;
4895;SDS011;2463;49.948;8.472;2022-10-19T08:29:29;98.68;;;8.63;;
4895;SDS011;2463;49.948;8.472;2022-10-19T08:31:57;93.60;;;7.18;;
4895;SDS011;2463;49.948;8.472;2022-10-19T08:34:24;98.03;;;8.20;;
4895;SDS011;2463;49.948;8.472;2022-10-19T08:36:51;92.57;;;7.20;;
4895;SDS011;2463;49.948;8.472;2022-10-19T08:39:17;95.95;;;7.60;;
4895;SDS011;2463;49.948;8.472;2022-10-19T08:47:12;92.03;;;6.90;;
4895;SDS011;2463;49.948;8.472;2022-10-19T08:50:02;87.87;;;5.87;;
4895;SDS011;2463;49.948;8.472;2022-10-19T08:52:39;89.37;;;6.57;;
4895;SDS011;2463;49.948;8.472;2022-10-19T08:55:14;89.50;;;6.40;;
4895;SDS011;2463;49.948;8.472;2022-10-19T08:57:49;88.20;;;5.80;;
4895;SDS011;2463;49.948;8.472;2022-10-19T09:00:41;90.40;;;6.57;;
4895;SDS011;2463;49.948;8.472;2022-10-19T09:03:23;87.57;;;6.40;;
4895;SDS011;2463;49.948;8.472;2022-10-19T09:08:53;86.70;;;5.60;;
4895;SDS011;2463;49.948;8.472;2022-10-19T09:11:24;84.63;;;6.30;;
4895;SDS011;2463;49.948;8.472;2022-10-19T09:16:44;83.50;;;4.80;;
4895;SDS011;2463;49.948;8.472;2022-10-19T09:19:12;83.37;;;4.63;;
4895;SDS011;2463;49.948;8.472;2022-10-19T09:22:06;81.43;;;4.63;;
4895;SDS011;2463;49.948;8.472;2022-10-19T09:24:55;82.70;;;4.90;;
4895;SDS011;2463;49.948;8.472;2022-10-19T09:27:36;83.07;;;5.57;;
4895;SDS011;2463;49.948;8.472;2022-10-19T09:30:15;80.10;;;4.57;;
4895;SDS011;2463;49.948;8.472;2022-10-19T09:32:48;82.03;;;4.97;;
4895;SDS011;2463;49.948;8.472;2022-10-19T09:35:27;80.80;;;4.67;;
4895;SDS011;2463;49.948;8.472;2022-10-19T09:37:55;79.77;;;4.10;;
4895;SDS011;2463;49.948;8.472;2022-10-19T09:40:23;83.90;;;5.40;;
4895;SDS011;2463;49.948;8.472;2022-10-19T09:42:52;83.13;;;5.70;;
4895;SDS011;2463;49.948;8.472;2022-10-19T09:48:34;85.60;;;6.37;;
4895;SDS011;2463;49.948;8.472;2022-10-19T09:51:11;87.57;;;6.17;;
4895;SDS011;2463;49.948;8.472;2022-10-19T09:53:45;88.67;;;6.63;;
4895;SDS011;2463;49.948;8.472;2022-10-19T09:56:19;92.50;;;6.17;;
4895;SDS011;2463;49.948;8.472;2022-10-19T09:58:53;91.13;;;7.00;;
4895;SDS011;2463;49.948;8.472;2022-10-19T10:01:33;96.28;;;7.47;;
4895;SDS011;2463;49.948;8.472;2022-10-19T10:04:09;93.07;;;6.68;;
4895;SDS011;2463;49.948;8.472;2022-10-19T10:06:39;92.53;;;7.03;;
4895;SDS011;2463;49.948;8.472;2022-10-19T10:09:12;97.60;;;7.00;;
4895;SDS011;2463;49.948;8.472;2022-10-19T10:11:41;96.60;;;7.90;;
4895;SDS011;2463;49.948;8.472;2022-10-19T10:16:40;98.18;;;8.55;;
4895;SDS011;2463;49.948;8.472;2022-10-19T10:19:09;97.72;;;7.75;;
4895;SDS011;2463;49.948;8.472;2022-10-19T10:21:49;95.55;;;7.70;;
4895;SDS011;2463;49.948;8.472;2022-10-19T10:24:20;98.57;;;8.52;;
4895;SDS011;2463;49.948;8.472;2022-10-19T10:26:53;95.40;;;7.18;;
4895;SDS011;2463;49.948;8.472;2022-10-19T10:31:54;106.82;;;8.98;;
4895;SDS011;2463;49.948;8.472;2022-10-19T10:34:38;95.10;;;7.60;;
4895;SDS011;2463;49.948;8.472;2022-10-19T10:37:19;99.50;;;8.27;;
4895;SDS011;2463;49.948;8.472;2022-10-19T10:39:54;99.32;;;7.70;;
4895;SDS011;2463;49.948;8.472;2022-10-19T10:42:33;97.50;;;8.05;;
4895;SDS011;2463;49.948;8.472;2022-10-19T10:45:30;101.00;;;7.70;;
4895;SDS011;2463;49.948;8.472;2022-10-19T10:48:50;96.32;;;7.65;;
4895;SDS011;2463;49.948;8.472;2022-10-19T10:50:54;95.45;;;7.60;;
4895;SDS011;2463;49.948;8.472;2022-10-19T10:53:33;96.70;;;8.13;;
4895;SDS011;2463;49.948;8.472;2022-10-19T10:56:05;99.68;;;7.72;;
4895;SDS011;2463;49.948;8.472;2022-10-19T10:58:47;97.72;;;8.55;;
4895;SDS011;2463;49.948;8.472;2022-10-19T11:01:22;101.05;;;7.63;;
4895;SDS011;2463;49.948;8.472;2022-10-19T11:04:13;98.60;;;8.02;;
4895;SDS011;2463;49.948;8.472;2022-10-19T11:06:46;97.45;;;8.25;;
4895;SDS011;2463;49.948;8.472;2022-10-19T11:09:33;97.35;;;7.90;;
4895;SDS011;2463;49.948;8.472;2022-10-19T11:12:04;98.20;;;8.52;;
4895;SDS011;2463;49.948;8.472;2022-10-19T11:14:49;99.13;;;7.90;;
4895;SDS011;2463;49.948;8.472;2022-10-19T11:17:40;98.38;;;8.70;;
4895;SDS011;2463;49.948;8.472;2022-10-19T11:20:16;104.85;;;8.43;;
4895;SDS011;2463;49.948;8.472;2022-10-19T11:22:48;98.20;;;7.85;;
4895;SDS011;2463;49.948;8.472;2022-10-19T11:28:15;106.45;;;9.15;;
4895;SDS011;2463;49.948;8.472;2022-10-19T11:31:15;97.07;;;7.82;;
4895;SDS011;2463;49.948;8.472;2022-10-19T11:53:54;97.57;;;7.60;;
4895;SDS011;2463;49.948;8.472;2022-10-19T12:05:03;103.68;;;8.95;;
4895;SDS011;2463;49.948;8.472;2022-10-19T12:07:40;96.07;;;7.70;;
4895;SDS011;2463;49.948;8.472;2022-10-19T12:10:26;96.32;;;8.02;;
4895;SDS011;2463;49.948;8.472;2022-10-19T12:13:02;97.28;;;8.52;;
4895;SDS011;2463;49.948;8.472;2022-10-19T12:15:32;95.88;;;7.45;;
4895;SDS011;2463;49.948;8.472;2022-10-19T12:18:07;94.53;;;7.68;;
4895;SDS011;2463;49.948;8.472;2022-10-19T12:20:55;94.28;;;7.35;;
4895;SDS011;2463;49.948;8.472;2022-10-19T12:25:59;94.90;;;8.02;;
4895;SDS011;2463;49.948;8.472;2022-10-19T12:28:29;104.35;;;7.88;;
4895;SDS011;2463;49.948;8.472;2022-10-19T12:30:58;97.22;;;8.00;;
4895;SDS011;2463;49.948;8.472;2022-10-19T12:38:55;95.05;;;7.32;;
4895;SDS011;2463;49.948;8.472;2022-10-19T12:47:06;93.38;;;6.60;;
4895;SDS011;2463;49.948;8.472;2022-10-19T12:55:11;94.40;;;7.22;;
4895;SDS011;2463;49.948;8.472;2022-10-19T12:57:38;97.15;;;7.10;;
4895;SDS011;2463;49.948;8.472;2022-10-19T13:00:17;96.78;;;7.00;;
4895;SDS011;2463;49.948;8.472;2022-10-19T13:02:56;91.82;;;6.38;;
4895;SDS011;2463;49.948;8.472;2022-10-19T13:05:39;97.18;;;6.85;;
4895;SDS011;2463;49.948;8.472;2022-10-19T13:08:06;99.85;;;7.35;;
4895;SDS011;2463;49.948;8.472;2022-10-19T13:10:38;96.30;;;7.38;;
4895;SDS011;2463;49.948;8.472;2022-10-19T13:13:05;93.85;;;6.95;;
4895;SDS011;2463;49.948;8.472;2022-10-19T13:16:30;93.05;;;6.35;;
4895;SDS011;2463;49.948;8.472;2022-10-19T13:21:43;98.55;;;7.28;;
4895;SDS011;2463;49.948;8.472;2022-10-19T13:35:19;94.13;;;6.65;;
4895;SDS011;2463;49.948;8.472;2022-10-19T13:40:38;93.35;;;6.90;;
4895;SDS011;2463;49.948;8.472;2022-10-19T13:43:40;99.93;;;6.85;;
4895;SDS011;2463;49.948;8.472;2022-10-19T14:05:53;94.28;;;6.72;;
4895;SDS011;2463;49.948;8.472;2022-10-19T14:11:30;93.22;;;6.20;;
4895;SDS011;2463;49.948;8.472;2022-10-19T14:16:50;92.90;;;7.07;;
4895;SDS011;2463;49.948;8.472;2022-10-19T14:19:48;93.00;;;6.57;;
4895;SDS011;2463;49.948;8.472;2022-10-19T14:22:19;94.72;;;7.50;;
4895;SDS011;2463;49.948;8.472;2022-10-19T14:24:59;95.38;;;7.75;;
4895;SDS011;2463;49.948;8.472;2022-10-19T14:27:28;95.10;;;7.40;;
4895;SDS011;2463;49.948;8.472;2022-10-19T14:29:55;94.97;;;7.63;;
4895;SDS011;2463;49.948;8.472;2022-10-19T14:32:26;95.13;;;7.50;;
4895;SDS011;2463;49.948;8.472;2022-10-19T14:34:56;96.45;;;7.93;;
4895;SDS011;2463;49.948;8.472;2022-10-19T14:37:29;93.90;;;7.20;;
4895;SDS011;2463;49.948;8.472;2022-10-19T14:42:33;95.55;;;8.00;;
4895;SDS011;2463;49.948;8.472;2022-10-19T14:45:09;95.05;;;8.18;;
4895;SDS011;2463;49.948;8.472;2022-10-19T14:50:28;95.22;;;7.65;;
4895;SDS011;2463;49.948;8.472;2022-10-19T14:53:01;96.22;;;7.90;;
4895;SDS011;2463;49.948;8.472;2022-10-19T14:55:44;96.22;;;7.47;;
4895;SDS011;2463;49.948;8.472;2022-10-19T14:58:14;96.45;;;8.20;;
4895;SDS011;2463;49.948;8.472;2022-10-19T15:00:44;95.43;;;8.05;;
4895;SDS011;2463;49.948;8.472;2022-10-19T15:03:16;97.68;;;8.43;;
4895;SDS011;2463;49.948;8.472;2022-10-19T15:05:48;95.65;;;8.07;;
4895;SDS011;2463;49.948;8.472;2022-10-19T15:08:41;95.35;;;7.40;;
4895;SDS011;2463;49.948;8.472;2022-10-19T15:11:26;98.28;;;8.63;;
4895;SDS011;2463;49.948;8.472;2022-10-19T15:13:56;97.50;;;8.10;;
4895;SDS011;2463;49.948;8.472;2022-10-19T15:19:02;96.40;;;8.25;;
4895;SDS011;2463;49.948;8.472;2022-10-19T15:21:30;95.22;;;7.70;;
4895;SDS011;2463;49.948;8.472;2022-10-19T15:24:06;97.07;;;7.70;;
4895;SDS011;2463;49.948;8.472;2022-10-19T15:26:41;95.53;;;7.72;;
4895;SDS011;2463;49.948;8.472;2022-10-19T15:29:27;102.40;;;8.70;;
4895;SDS011;2463;49.948;8.472;2022-10-19T15:31:54;94.65;;;7.30;;
4895;SDS011;2463;49.948;8.472;2022-10-19T15:34:24;97.95;;;8.65;;
4895;SDS011;2463;49.948;8.472;2022-10-19T15:36:58;93.90;;;6.90;;
4895;SDS011;2463;49.948;8.472;2022-10-19T15:39:29;95.03;;;7.45;;
4895;SDS011;2463;49.948;8.472;2022-10-19T15:44:54;98.70;;;8.27;;
4895;SDS011;2463;49.948;8.472;2022-10-19T15:47:22;100.40;;;8.90;;
4895;SDS011;2463;49.948;8.472;2022-10-19T15:49:53;96.97;;;8.73;;
4895;SDS011;2463;49.948;8.472;2022-10-19T15:52:26;98.00;;;8.07;;
4895;SDS011;2463;49.948;8.472;2022-10-19T15:54:56;97.55;;;8.40;;
4895;SDS011;2463;49.948;8.472;2022-10-19T15:59:55;95.72;;;8.07;;
4895;SDS011;2463;49.948;8.472;2022-10-19T16:02:23;106.22;;;9.43;;
4895;SDS011;2463;49.948;8.472;2022-10-19T16:04:51;97.07;;;8.75;;
4895;SDS011;2463;49.948;8.472;2022-10-19T16:07:22;96.82;;;8.02;;
4895;SDS011;2463;49.948;8.472;2022-10-19T16:09:51;98.50;;;8.00;;
4895;SDS011;2463;49.948;8.472;2022-10-19T16:12:19;98.55;;;9.18;;
4895;SDS011;2463;49.948;8.472;2022-10-19T16:14:46;97.03;;;7.70;;
4895;SDS011;2463;49.948;8.472;2022-10-19T16:17:13;100.55;;;8.75;;
4895;SDS011;2463;49.948;8.472;2022-10-19T16:19:41;98.75;;;7.88;;
4895;SDS011;2463;49.948;8.472;2022-10-19T16:22:09;102.40;;;8.60;;
4895;SDS011;2463;49.948;8.472;2022-10-19T16:24:36;95.88;;;7.75;;
4895;SDS011;2463;49.948;8.472;2022-10-19T16:27:04;98.22;;;8.05;;
4895;SDS011;2463;49.948;8.472;2022-10-19T16:29:31;96.53;;;8.35;;
4895;SDS011;2463;49.948;8.472;2022-10-19T16:31:58;100.95;;;9.05;;
4895;SDS011;2463;49.948;8.472;2022-10-19T16:34:25;101.25;;;8.55;;
4895;SDS011;2463;49.948;8.472;2022-10-19T16:36:52;104.55;;;10.23;;
4895;SDS011;2463;49.948;8.472;2022-10-19T16:39:19;98.18;;;9.10;;
4895;SDS011;2463;49.948;8.472;2022-10-19T16:41:46;97.90;;;9.00;;
4895;SDS011;2463;49.948;8.472;2022-10-19T16:44:13;99.70;;;9.60;;
4895;SDS011;2463;49.948;8.472;2022-10-19T16:46:39;101.47;;;9.75;;
4895;SDS011;2463;49.948;8.472;2022-10-19T16:49:06;101.85;;;8.88;;
4895;SDS011;2463;49.948;8.472;2022-10-19T16:51:33;95.38;;;7.63;;
4895;SDS011;2463;49.948;8.472;2022-10-19T16:54:02;99.28;;;8.95;;
4895;SDS011;2463;49.948;8.472;2022-10-19T16:56:31;96.35;;;8.02;;
4895;SDS011;2463;49.948;8.472;2022-10-19T16:59:03;102.07;;;8.52;;
4895;SDS011;2463;49.948;8.472;2022-10-19T17:01:32;97.80;;;8.68;;
4895;SDS011;2463;49.948;8.472;2022-10-19T17:03:59;98.15;;;8.52;;
4895;SDS011;2463;49.948;8.472;2022-10-19T17:06:26;97.70;;;8.65;;
4895;SDS011;2463;49.948;8.472;2022-10-19T17:08:55;98.55;;;8.30;;
4895;SDS011;2463;49.948;8.472;2022-10-19T17:11:42;98.40;;;8.70;;
4895;SDS011;2463;49.948;8.472;2022-10-19T17:14:10;96.68;;;8.32;;
4895;SDS011;2463;49.948;8.472;2022-10-19T17:16:38;96.47;;;8.35;;
4895;SDS011;2463;49.948;8.472;2022-10-19T17:19:05;97.18;;;8.48;;
4895;SDS011;2463;49.948;8.472;2022-10-19T17:21:34;97.13;;;8.70;;
4895;SDS011;2463;49.948;8.472;2022-10-19T17:24:10;98.60;;;8.65;;
4895;SDS011;2463;49.948;8.472;2022-10-19T17:26:45;99.07;;;9.50;;
4895;SDS011;2463;49.948;8.472;2022-10-19T17:29:12;97.28;;;8.93;;
4895;SDS011;2463;49.948;8.472;2022-10-19T17:31:39;99.65;;;8.35;;
4895;SDS011;2463;49.948;8.472;2022-10-19T17:34:07;97.00;;;8.63;;
4895;SDS011;2463;49.948;8.472;2022-10-19T17:36:35;97.95;;;8.82;;
4895;SDS011;2463;49.948;8.472;2022-10-19T17:39:07;96.90;;;8.38;;
4895;SDS011;2463;49.948;8.472;2022-10-19T17:41:36;97.75;;;9.35;;
4895;SDS011;2463;49.948;8.472;2022-10-19T17:44:03;98.28;;;8.93;;
4895;SDS011;2463;49.948;8.472;2022-10-19T17:46:31;96.72;;;8.40;;
4895;SDS011;2463;49.948;8.472;2022-10-19T17:48:59;100.85;;;9.38;;
4895;SDS011;2463;49.948;8.472;2022-10-19T17:51:30;102.25;;;8.80;;